Time;durP1;ratioP1;P1;durP2;ratioP2;P2;SDS_P1;SDS_P2;PMS_P1;PMS_P2;Temp;Humidity;BMP_temperature;BMP_pressure;BME280_temperature;BME280_humidity;BME280_pressure;Samples;Min_cycle;Max_cycle;Signal;HPM_P1;HPM_P2
2023/07/20 00:00:53;;;;;;;2.80;2.60;;;16.40;99.90;;;;;;5053935;28;20076;-73
2023/07/20 00:03:22;;;;;;;3.00;2.70;;;16.40;99.90;;;;;;5052703;28;20049;-73
2023/07/20 00:05:49;;;;;;;1.88;1.77;;;16.40;99.90;;;;;;5052605;28;20067;-72
2023/07/20 00:08:16;;;;;;;1.83;1.70;;;16.40;99.90;;;;;;5035477;28;20057;-76
2023/07/20 00:10:42;;;;;;;1.70;1.60;;;16.40;99.90;;;;;;5053340;28;20158;-78
2023/07/20 00:13:08;;;;;;;2.85;2.10;;;16.40;99.90;;;;;;5019199;28;20099;-73
2023/07/20 00:15:34;;;;;;;2.08;1.98;;;16.30;99.90;;;;;;5036517;28;20041;-76
2023/07/20 00:17:59;;;;;;;3.90;1.90;;;16.40;99.90;;;;;;5035862;28;20461;-76
2023/07/20 00:20:25;;;;;;;2.20;2.00;;;16.40;99.90;;;;;;5053334;28;20057;-76
2023/07/20 00:22:51;;;;;;;1.98;1.77;;;16.30;99.90;;;;;;5035610;28;20056;-74
2023/07/20 00:25:18;;;;;;;1.70;1.60;;;16.30;99.90;;;;;;5018394;28;20044;-73
2023/07/20 00:27:44;;;;;;;2.75;1.70;;;16.30;99.90;;;;;;5052683;28;20052;-75
2023/07/20 00:30:10;;;;;;;2.22;1.90;;;16.30;99.90;;;;;;5052666;28;20056;-75
2023/07/20 00:32:36;;;;;;;2.08;1.60;;;16.30;99.90;;;;;;5052810;28;20037;-74
2023/07/20 00:35:02;;;;;;;1.55;1.40;;;16.30;99.90;;;;;;5035074;28;20048;-76
2023/07/20 00:37:28;;;;;;;1.73;1.60;;;16.30;99.90;;;;;;5034606;28;20052;-74
2023/07/20 00:39:54;;;;;;;1.83;1.15;;;16.20;99.90;;;;;;5052578;28;20231;-76
2023/07/20 00:42:20;;;;;;;1.58;1.48;;;16.20;99.90;;;;;;5052845;28;20156;-78
2023/07/20 00:44:46;;;;;;;1.10;1.10;;;16.20;99.90;;;;;;5052463;28;20053;-75
2023/07/20 00:47:12;;;;;;;4.63;1.83;;;16.20;99.90;;;;;;5035529;28;20061;-77
2023/07/20 00:49:38;;;;;;;2.25;1.65;;;16.20;99.90;;;;;;5052671;28;20099;-75
2023/07/20 00:52:07;;;;;;;3.42;2.17;;;16.20;99.90;;;;;;5052331;28;20041;-72
2023/07/20 00:54:33;;;;;;;1.45;1.35;;;16.20;99.90;;;;;;5052117;28;20048;-73
2023/07/20 00:57:01;;;;;;;1.45;1.20;;;16.10;99.90;;;;;;5052487;28;20068;-74
2023/07/20 00:59:27;;;;;;;1.50;1.40;;;16.10;99.90;;;;;;5034628;28;20052;-77
2023/07/20 01:01:53;;;;;;;1.83;1.65;;;16.10;99.90;;;;;;5034466;28;20049;-73
2023/07/20 01:04:19;;;;;;;1.83;1.73;;;16.10;99.90;;;;;;5052322;28;20137;-74
2023/07/20 01:06:51;;;;;;;1.90;1.80;;;16.00;99.90;;;;;;5052365;28;20053;-77
2023/07/20 01:09:24;;;;;;;1.50;1.47;;;16.00;99.90;;;;;;5052487;28;20063;-75
2023/07/20 01:12:02;;;;;;;2.85;2.35;;;15.90;99.90;;;;;;5052188;28;20291;-74
2023/07/20 01:14:28;;;;;;;2.33;2.13;;;15.90;99.90;;;;;;5052224;28;20061;-73
2023/07/20 01:16:54;;;;;;;2.47;1.77;;;15.90;99.90;;;;;;5052741;28;20125;-75
2023/07/20 01:19:19;;;;;;;2.20;2.00;;;15.80;99.90;;;;;;5052130;28;20531;-77
2023/07/20 01:21:55;;;;;;;2.58;2.38;;;15.70;99.90;;;;;;5052306;28;20051;-74
2023/07/20 01:24:37;;;;;;;2.60;2.25;;;15.70;99.90;;;;;;5057153;28;20148;-74
2023/07/20 01:27:24;;;;;;;3.45;2.90;;;15.60;99.90;;;;;;5056522;28;20059;-73
2023/07/20 01:30:08;;;;;;;2.40;2.20;;;15.50;99.90;;;;;;5038512;28;20060;-74
2023/07/20 01:32:35;;;;;;;3.03;2.83;;;15.50;99.90;;;;;;5056470;28;20107;-78
2023/07/20 01:35:04;;;;;;;2.60;2.40;;;15.40;99.90;;;;;;5055520;28;20478;-75
2023/07/20 01:37:31;;;;;;;3.20;3.00;;;15.30;99.90;;;;;;5055977;28;20049;-74
2023/07/20 01:39:58;;;;;;;3.20;2.90;;;15.20;99.90;;;;;;5038765;28;20045;-73
2023/07/20 01:42:24;;;;;;;3.25;2.50;;;15.20;99.90;;;;;;5038163;28;20095;-78
2023/07/20 01:44:53;;;;;;;3.10;2.80;;;15.10;99.90;;;;;;5055488;28;20060;-76
2023/07/20 01:47:19;;;;;;;2.60;2.40;;;15.10;99.90;;;;;;5055651;28;20040;-77
2023/07/20 01:49:45;;;;;;;2.88;2.30;;;15.00;99.90;;;;;;5021516;28;20052;-77
2023/07/20 01:52:10;;;;;;;4.35;2.42;;;15.00;99.90;;;;;;5055964;28;20045;-74
2023/07/20 01:54:36;;;;;;;3.13;2.70;;;15.00;99.90;;;;;;5037863;28;20067;-73
2023/07/20 01:57:02;;;;;;;3.50;2.58;;;14.90;99.90;;;;;;5037814;28;20091;-73
2023/07/20 01:59:28;;;;;;;3.67;3.08;;;14.90;99.90;;;;;;5055547;28;20505;-72
2023/07/20 02:01:54;;;;;;;2.83;2.63;;;14.80;99.90;;;;;;5037635;28;20045;-77
2023/07/20 02:04:19;;;;;;;4.15;3.75;;;14.80;99.90;;;;;;5055595;28;20170;-77
2023/07/20 02:06:45;;;;;;;3.42;3.13;;;14.70;99.90;;;;;;5055392;28;20056;-77
2023/07/20 02:09:11;;;;;;;3.08;2.78;;;14.70;99.90;;;;;;5055301;28;20056;-75
2023/07/20 02:11:36;;;;;;;4.55;3.17;;;14.70;99.90;;;;;;5037749;28;20116;-73
2023/07/20 02:14:02;;;;;;;3.28;2.97;;;14.60;99.90;;;;;;5037925;28;20111;-75
2023/07/20 02:16:28;;;;;;;3.60;3.30;;;14.50;99.90;;;;;;5055174;28;20069;-79
2023/07/20 02:18:56;;;;;;;4.15;3.83;;;14.50;99.90;;;;;;5037197;28;20091;-75
2023/07/20 02:21:22;;;;;;;3.20;3.00;;;14.50;99.90;;;;;;5037497;28;20060;-74
2023/07/20 02:23:48;;;;;;;3.00;2.80;;;14.40;99.90;;;;;;5054692;28;20049;-73
2023/07/20 02:26:14;;;;;;;4.20;3.80;;;14.40;99.90;;;;;;5055479;28;20045;-74
2023/07/20 02:28:41;;;;;;;3.85;3.40;;;14.40;99.90;;;;;;5054968;28;20056;-77
2023/07/20 02:31:07;;;;;;;3.88;3.50;;;14.40;99.90;;;;;;5037528;28;20482;-76
2023/07/20 02:33:33;;;;;;;2.70;2.35;;;14.30;99.90;;;;;;5054163;28;20045;-77
2023/07/20 02:35:58;;;;;;;4.97;3.97;;;14.30;99.90;;;;;;5021265;28;20434;-72
2023/07/20 02:38:24;;;;;;;4.18;3.78;;;14.30;99.90;;;;;;5037203;28;20045;-72
2023/07/20 02:40:50;;;;;;;3.08;2.78;;;14.20;99.90;;;;;;5054684;28;20055;-77
2023/07/20 02:43:16;;;;;;;3.85;3.45;;;14.20;99.90;;;;;;5055153;28;20059;-74
2023/07/20 02:45:42;;;;;;;3.38;3.13;;;14.10;99.90;;;;;;5054931;28;20385;-73
2023/07/20 02:48:08;;;;;;;4.10;3.80;;;14.10;99.90;;;;;;5020691;28;20055;-72
2023/07/20 02:50:35;;;;;;;4.03;3.67;;;14.10;99.90;;;;;;5036757;28;20044;-73
2023/07/20 02:53:01;;;;;;;2.92;2.72;;;14.00;99.90;;;;;;5054500;28;20045;-77
2023/07/20 02:55:26;;;;;;;5.90;4.20;;;14.00;99.90;;;;;;5037131;28;20045;-77
2023/07/20 02:57:52;;;;;;;4.28;3.80;;;14.00;99.90;;;;;;5054724;28;20533;-72
2023/07/20 03:00:19;;;;;;;4.10;3.63;;;13.80;99.90;;;;;;5054691;28;20041;-74
2023/07/20 03:02:47;;;;;;;3.50;3.25;;;13.90;99.90;;;;;;5036723;28;20048;-77
2023/07/20 03:05:14;;;;;;;4.28;3.97;;;13.90;99.90;;;;;;5036615;28;20092;-74
2023/07/20 03:07:39;;;;;;;8.25;4.15;;;13.90;99.90;;;;;;5054179;28;20124;-75
2023/07/20 03:10:09;;;;;;;3.88;3.58;;;13.80;99.90;;;;;;5054310;28;20084;-77
2023/07/20 03:12:35;;;;;;;5.00;3.95;;;13.80;99.90;;;;;;5036122;28;20347;-72
2023/07/20 03:15:02;;;;;;;4.38;3.97;;;13.80;99.90;;;;;;5054075;28;20049;-75
2023/07/20 03:17:28;;;;;;;3.90;3.50;;;13.80;99.90;;;;;;5036833;28;20094;-72
2023/07/20 03:19:54;;;;;;;3.42;3.13;;;13.80;99.90;;;;;;5053865;28;20045;-77
2023/07/20 03:22:21;;;;;;;3.05;2.75;;;13.70;99.90;;;;;;5053978;28;20041;-72
2023/07/20 03:24:47;;;;;;;3.78;3.47;;;13.70;99.90;;;;;;5053734;28;20045;-76
2023/07/20 03:27:13;;;;;;;3.60;3.15;;;13.70;99.90;;;;;;5054073;28;20045;-72
2023/07/20 03:29:38;;;;;;;3.47;3.17;;;13.60;99.90;;;;;;5035651;28;20051;-72
2023/07/20 03:32:05;;;;;;;3.63;3.33;;;13.60;99.90;;;;;;5053767;28;20044;-72
2023/07/20 03:34:30;;;;;;;4.10;3.38;;;13.60;99.90;;;;;;5053538;28;20128;-73
2023/07/20 03:36:56;;;;;;;3.70;3.40;;;13.60;99.90;;;;;;5053743;28;20521;-76
2023/07/20 03:39:22;;;;;;;4.03;3.63;;;13.60;99.90;;;;;;5053225;28;20058;-76
2023/07/20 03:41:48;;;;;;;4.05;3.72;;;13.60;99.90;;;;;;5053671;28;20045;-72
2023/07/20 03:44:14;;;;;;;5.00;4.50;;;13.50;99.90;;;;;;5053088;28;20508;-77
2023/07/20 03:46:39;;;;;;;3.80;3.40;;;13.50;99.90;;;;;;5052938;28;20071;-74
2023/07/20 03:49:06;;;;;;;3.33;2.97;;;13.50;99.90;;;;;;5053116;28;20239;-75
2023/07/20 03:51:32;;;;;;;3.80;3.30;;;13.50;99.90;;;;;;5053048;28;20068;-73
2023/07/20 03:53:57;;;;;;;4.05;3.40;;;13.40;99.90;;;;;;5035589;28;20058;-74
2023/07/20 03:56:24;;;;;;;3.65;3.33;;;13.40;99.90;;;;;;5053168;28;20095;-74
2023/07/20 03:58:49;;;;;;;3.30;3.00;;;13.40;99.90;;;;;;5035659;28;20056;-75
2023/07/20 04:01:16;;;;;;;3.10;2.80;;;13.40;99.90;;;;;;5053063;28;20041;-75
2023/07/20 04:03:42;;;;;;;2.83;2.63;;;13.40;99.90;;;;;;5052984;28;20051;-79
2023/07/20 04:06:08;;;;;;;3.10;2.70;;;13.30;99.90;;;;;;5034926;28;20061;-73
2023/07/20 04:08:35;;;;;;;3.55;3.25;;;13.40;99.90;;;;;;5053364;28;20150;-74
2023/07/20 04:11:02;;;;;;;4.20;3.00;;;13.30;99.90;;;;;;5053116;28;20081;-76
2023/07/20 04:13:28;;;;;;;3.25;2.97;;;13.40;99.90;;;;;;5052273;28;20045;-79
2023/07/20 04:15:53;;;;;;;3.15;2.95;;;13.40;99.90;;;;;;5034611;28;20059;-74
2023/07/20 04:18:19;;;;;;;2.90;2.38;;;13.40;99.90;;;;;;5053000;28;20151;-74
2023/07/20 04:20:45;;;;;;;3.72;3.35;;;13.40;99.90;;;;;;5052556;28;20135;-77
2023/07/20 04:23:11;;;;;;;2.33;2.13;;;13.40;99.90;;;;;;5018697;28;20056;-74
2023/07/20 04:25:39;;;;;;;3.25;2.85;;;13.40;99.90;;;;;;5035091;28;20048;-72
2023/07/20 04:28:09;;;;;;;2.72;2.53;;;13.40;99.90;;;;;;5035545;28;20195;-74
2023/07/20 04:30:36;;;;;;;2.58;2.33;;;13.40;99.90;;;;;;5052629;28;20052;-77
2023/07/20 04:33:03;;;;;;;2.80;2.22;;;13.40;99.90;;;;;;5052966;28;20066;-77
2023/07/20 04:35:49;;;;;;;2.92;2.58;;;13.40;99.90;;;;;;5035049;28;20140;-74
2023/07/20 04:38:17;;;;;;;2.28;2.08;;;13.40;99.90;;;;;;5052574;28;20040;-77
2023/07/20 04:40:47;;;;;;;2.83;2.30;;;13.50;99.90;;;;;;5052506;28;20048;-74
2023/07/20 04:43:14;;;;;;;2.88;2.33;;;13.50;99.90;;;;;;5035452;28;20060;-74
2023/07/20 04:45:40;;;;;;;2.50;2.20;;;13.60;99.90;;;;;;5052332;28;20130;-73
2023/07/20 04:48:10;;;;;;;2.45;2.13;;;13.70;99.90;;;;;;5035246;28;20513;-76
2023/07/20 04:50:36;;;;;;;2.55;2.35;;;13.60;99.90;;;;;;5052219;28;20488;-76
2023/07/20 04:53:02;;;;;;;4.10;2.42;;;13.70;99.90;;;;;;5052420;28;20044;-72
2023/07/20 04:55:28;;;;;;;4.25;2.58;;;13.70;99.90;;;;;;5018286;28;20053;-73
2023/07/20 04:57:53;;;;;;;3.63;2.70;;;13.70;99.90;;;;;;5051445;28;20480;-76
2023/07/20 05:00:21;;;;;;;2.55;2.35;;;13.80;99.90;;;;;;5052127;28;20051;-73
2023/07/20 05:02:48;;;;;;;2.85;2.65;;;13.80;99.90;;;;;;5052434;28;20084;-74
2023/07/20 05:05:15;;;;;;;3.60;2.80;;;13.90;99.90;;;;;;5052207;28;20128;-77
2023/07/20 05:07:40;;;;;;;3.25;2.95;;;13.90;99.90;;;;;;5052200;28;20118;-74
2023/07/20 05:10:07;;;;;;;5.53;2.90;;;13.90;99.90;;;;;;5052101;28;20056;-74
2023/07/20 05:12:32;;;;;;;3.08;2.35;;;14.00;99.90;;;;;;5034243;28;20045;-76
2023/07/20 05:14:58;;;;;;;2.53;2.20;;;13.90;99.90;;;;;;5052335;28;20049;-74
2023/07/20 05:17:24;;;;;;;2.47;2.08;;;14.00;99.90;;;;;;5052478;28;20040;-75
2023/07/20 05:19:50;;;;;;;3.50;3.20;;;14.10;99.90;;;;;;5052476;28;20493;-76
2023/07/20 05:22:16;;;;;;;6.28;2.90;;;14.20;99.90;;;;;;5052663;28;20080;-74
2023/07/20 05:24:42;;;;;;;2.65;2.45;;;14.30;99.90;;;;;;5018002;28;20080;-73
2023/07/20 05:27:08;;;;;;;2.70;2.13;;;14.50;99.90;;;;;;5033966;28;20045;-74
2023/07/20 05:29:34;;;;;;;1.77;1.67;;;14.60;99.90;;;;;;5052160;28;20090;-74
2023/07/20 05:32:00;;;;;;;2.45;2.15;;;14.70;99.90;;;;;;5051695;28;20040;-77
2023/07/20 05:34:25;;;;;;;2.70;2.22;;;14.90;99.90;;;;;;5034018;28;20417;-75
2023/07/20 05:36:51;;;;;;;3.47;2.13;;;15.00;99.90;;;;;;5034150;28;20048;-74
2023/07/20 05:39:18;;;;;;;2.35;2.15;;;15.20;99.90;;;;;;5051750;28;20051;-75
2023/07/20 05:41:43;;;;;;;4.03;2.08;;;15.20;99.90;;;;;;5034037;28;20452;-73
2023/07/20 05:44:09;;;;;;;3.67;1.98;;;15.20;99.90;;;;;;5017856;28;20045;-75
2023/07/20 05:46:35;;;;;;;4.30;2.28;;;15.30;99.90;;;;;;5051620;28;20355;-75
2023/07/20 05:49:01;;;;;;;2.35;1.85;;;15.30;99.90;;;;;;5051631;28;20051;-73
2023/07/20 05:51:27;;;;;;;6.40;2.25;;;15.50;99.90;;;;;;5051580;28;20519;-77
2023/07/20 05:53:53;;;;;;;1.92;1.75;;;15.60;99.90;;;;;;5051994;28;20114;-74
2023/07/20 05:56:18;;;;;;;3.22;2.25;;;15.70;99.90;;;;;;5051439;28;20052;-73
2023/07/20 05:58:44;;;;;;;2.20;1.92;;;15.80;99.90;;;;;;5051643;28;20398;-73
2023/07/20 06:01:10;;;;;;;4.72;2.10;;;15.80;99.90;;;;;;5051630;28;20093;-74
2023/07/20 06:03:37;;;;;;;2.00;1.80;;;15.90;99.90;;;;;;5051635;28;20057;-76
2023/07/20 06:06:04;;;;;;;2.60;2.13;;;15.90;99.90;;;;;;5033709;28;20485;-73
2023/07/20 06:08:33;;;;;;;2.60;1.77;;;15.90;99.90;;;;;;5052912;28;20049;-77
2023/07/20 06:10:58;;;;;;;3.90;1.80;;;16.00;99.90;;;;;;5037444;28;20478;-74
2023/07/20 06:13:25;;;;;;;2.95;1.70;;;16.10;99.90;;;;;;5055537;28;20128;-75
2023/07/20 06:15:50;;;;;;;2.25;2.05;;;16.20;99.90;;;;;;5055092;28;20051;-74
2023/07/20 06:18:16;;;;;;;4.63;1.40;;;16.30;99.90;;;;;;5038156;28;20132;-74
2023/07/20 06:20:42;;;;;;;2.47;1.90;;;16.30;99.90;;;;;;5054962;28;20090;-75
2023/07/20 06:23:07;;;;;;;2.13;1.58;;;16.40;99.90;;;;;;5037279;28;20045;-78
2023/07/20 06:25:33;;;;;;;3.35;1.77;;;16.50;99.90;;;;;;5054950;28;20406;-73
2023/07/20 06:27:59;;;;;;;1.40;1.30;;;16.60;99.90;;;;;;5054838;28;20045;-73
2023/07/20 06:30:25;;;;;;;3.50;1.55;;;16.70;99.90;;;;;;5054798;28;20049;-76
2023/07/20 06:32:51;;;;;;;2.88;1.60;;;16.80;99.90;;;;;;5036917;28;20056;-78
2023/07/20 06:35:17;;;;;;;1.85;1.30;;;17.10;99.90;;;;;;5054593;28;20086;-73
2023/07/20 06:37:43;;;;;;;2.80;1.50;;;18.00;99.90;;;;;;5054733;28;20048;-78
2023/07/20 06:40:09;;;;;;;3.30;1.30;;;19.40;99.90;;;;;;5054631;28;20540;-76
2023/07/20 06:42:35;;;;;;;2.13;1.10;;;20.60;99.90;;;;;;5054924;28;20052;-76
2023/07/20 06:45:00;;;;;;;1.63;1.30;;;21.70;99.90;;;;;;5054528;28;20037;-78
2023/07/20 06:47:26;;;;;;;1.67;1.13;;;22.50;99.90;;;;;;5054602;28;20500;-77
2023/07/20 06:49:52;;;;;;;2.30;1.27;;;23.10;99.90;;;;;;5054811;28;20048;-75
2023/07/20 06:52:18;;;;;;;1.30;1.20;;;23.40;99.90;;;;;;5054274;28;20067;-76
2023/07/20 06:54:44;;;;;;;1.30;1.10;;;23.80;99.20;;;;;;5054323;28;20099;-73
2023/07/20 06:57:09;;;;;;;1.20;0.80;;;24.50;98.40;;;;;;5054553;28;20056;-74
2023/07/20 06:59:35;;;;;;;1.23;0.60;;;24.80;97.40;;;;;;5019941;28;20529;-74
2023/07/20 07:02:01;;;;;;;1.63;0.80;;;25.00;96.60;;;;;;5054278;28;20045;-73
2023/07/20 07:04:27;;;;;;;2.67;1.27;;;25.30;95.70;;;;;;5054513;28;20507;-75
2023/07/20 07:06:52;;;;;;;1.35;0.90;;;25.20;95.40;;;;;;5053891;28;20111;-74
2023/07/20 07:09:18;;;;;;;2.53;0.98;;;25.20;94.50;;;;;;5053976;28;20072;-74
2023/07/20 07:11:44;;;;;;;1.10;0.82;;;25.00;94.10;;;;;;5036330;28;20045;-74
2023/07/20 07:14:11;;;;;;;2.30;1.63;;;25.30;94.40;;;;;;5053997;28;20049;-76
2023/07/20 07:16:37;;;;;;;2.88;1.17;;;25.70;94.10;;;;;;5036376;28;20521;-74
2023/07/20 07:19:03;;;;;;;1.88;0.90;;;26.20;93.70;;;;;;5053858;28;20091;-75
2023/07/20 07:21:29;;;;;;;1.63;0.80;;;26.70;93.10;;;;;;5035646;28;20107;-72
2023/07/20 07:23:57;;;;;;;1.10;0.80;;;26.90;92.70;;;;;;5053974;28;20140;-74
2023/07/20 07:26:23;;;;;;;1.20;0.88;;;27.00;92.10;;;;;;5036379;28;20059;-74
2023/07/20 07:28:49;;;;;;;1.45;1.35;;;26.90;91.40;;;;;;5053667;28;20106;-73
2023/07/20 07:31:15;;;;;;;1.88;1.10;;;27.30;91.20;;;;;;5054094;28;20464;-84
2023/07/20 07:33:41;;;;;;;1.80;1.00;;;27.30;90.80;;;;;;5054191;28;20094;-80
2023/07/20 07:36:06;;;;;;;2.40;1.00;;;27.20;90.50;;;;;;5054035;28;20076;-80
2023/07/20 07:38:33;;;;;;;3.47;1.13;;;26.90;90.40;;;;;;5053459;28;20103;-82
2023/07/20 07:40:59;;;;;;;2.35;1.35;;;26.40;90.50;;;;;;5054328;28;20052;-73
2023/07/20 07:43:25;;;;;;;4.50;1.30;;;25.40;90.40;;;;;;5053778;28;20041;-77
2023/07/20 07:45:54;;;;;;;2.60;1.27;;;25.20;90.90;;;;;;5036061;28;20072;-77
2023/07/20 07:48:21;;;;;;;2.17;1.10;;;25.00;88.70;;;;;;5036070;28;20083;-73
2023/07/20 07:50:47;;;;;;;1.73;1.20;;;24.70;91.00;;;;;;5053376;28;20103;-74
2023/07/20 07:53:12;;;;;;;2.53;1.20;;;24.90;90.70;;;;;;5053322;28;20494;-74
2023/07/20 07:55:38;;;;;;;2.08;1.30;;;25.30;90.30;;;;;;5035911;28;20049;-74
2023/07/20 07:58:04;;;;;;;1.95;1.30;;;25.00;88.10;;;;;;5053759;28;20428;-74
2023/07/20 08:00:30;;;;;;;3.25;1.13;;;25.10;86.50;;;;;;5036082;28;20048;-73
2023/07/20 08:02:55;;;;;;;4.75;1.08;;;25.50;90.00;;;;;;5035557;28;20519;-78
2023/07/20 08:05:21;;;;;;;2.58;1.50;;;25.90;88.90;;;;;;5053827;28;20044;-76
2023/07/20 08:07:47;;;;;;;2.38;1.63;;;25.70;87.00;;;;;;5052528;28;20486;-76
2023/07/20 08:10:12;;;;;;;2.85;1.45;;;26.00;87.90;;;;;;5053135;28;20084;-77
2023/07/20 08:12:38;;;;;;;2.13;1.05;;;26.70;87.00;;;;;;5053339;28;20045;-73
2023/07/20 08:15:04;;;;;;;4.22;1.20;;;27.40;86.50;;;;;;5053417;28;20466;-73
2023/07/20 08:17:30;;;;;;;1.25;1.10;;;28.10;84.90;;;;;;5052910;28;20124;-78
2023/07/20 08:19:55;;;;;;;2.55;1.48;;;27.90;86.00;;;;;;5052516;28;20085;-76
2023/07/20 08:22:21;;;;;;;1.70;1.00;;;27.50;85.60;;;;;;5052796;28;20040;-76
2023/07/20 08:24:47;;;;;;;1.85;1.42;;;27.20;85.50;;;;;;5035674;28;20487;-75
2023/07/20 08:27:12;;;;;;;2.13;1.17;;;27.50;84.90;;;;;;5035758;28;20120;-74
2023/07/20 08:29:38;;;;;;;6.20;1.73;;;27.00;84.30;;;;;;5035379;28;20049;-75
2023/07/20 08:32:05;;;;;;;4.07;2.00;;;26.00;84.60;;;;;;5034061;28;20087;-78
2023/07/20 08:34:31;;;;;;;2.55;1.70;;;25.90;85.50;;;;;;5052585;28;20079;-74
2023/07/20 08:36:58;;;;;;;2.78;1.88;;;26.40;84.00;;;;;;5018601;28;20457;-79
2023/07/20 08:39:24;;;;;;;2.35;1.48;;;26.90;84.70;;;;;;5052152;28;20407;-77
2023/07/20 08:41:51;;;;;;;3.15;1.60;;;27.20;81.00;;;;;;5053044;28;20045;-79
2023/07/20 08:44:17;;;;;;;1.85;1.48;;;26.20;81.40;;;;;;5052337;28;20501;-78
2023/07/20 08:46:44;;;;;;;2.80;1.80;;;24.90;83.90;;;;;;5052807;28;20045;-73
2023/07/20 08:49:11;;;;;;;2.60;1.33;;;24.10;85.10;;;;;;5034680;28;20483;-76
2023/07/20 08:51:38;;;;;;;2.35;1.45;;;24.60;86.10;;;;;;5052744;28;20045;-73
2023/07/20 08:54:04;;;;;;;2.13;1.30;;;25.80;84.50;;;;;;5052534;28;20048;-76
2023/07/20 08:56:33;;;;;;;2.22;1.27;;;25.50;82.70;;;;;;5052254;28;20379;-76
2023/07/20 08:59:00;;;;;;;5.43;1.20;;;24.40;84.70;;;;;;5051825;28;20492;-74
2023/07/20 09:01:28;;;;;;;3.63;1.45;;;23.60;87.20;;;;;;5052157;28;20095;-74
2023/07/20 09:03:53;;;;;;;3.47;1.70;;;22.90;88.00;;;;;;5034568;28;20049;-77
2023/07/20 09:06:19;;;;;;;2.10;1.50;;;22.20;88.90;;;;;;5017787;28;20518;-76
2023/07/20 09:08:45;;;;;;;2.75;1.50;;;21.90;89.80;;;;;;5052081;28;20114;-81
2023/07/20 09:11:13;;;;;;;4.15;2.13;;;22.30;90.10;;;;;;5052014;28;20041;-78
2023/07/20 09:13:39;;;;;;;2.67;1.50;;;23.40;89.00;;;;;;5052321;28;20142;-80
2023/07/20 09:16:04;;;;;;;4.40;1.85;;;24.70;87.50;;;;;;5051701;28;20048;-74
2023/07/20 09:18:36;;;;;;;1.35;1.10;;;25.40;87.50;;;;;;5034585;28;20123;-79
2023/07/20 09:21:05;;;;;;;2.90;1.23;;;26.30;84.50;;;;;;5052656;28;20127;-73
2023/07/20 09:23:40;;;;;;;1.30;1.20;;;26.40;84.70;;;;;;5051915;28;20084;-79
2023/07/20 09:26:14;;;;;;;5.07;1.73;;;25.90;83.40;;;;;;5052399;28;20065;-81
2023/07/20 09:28:51;;;;;;;3.85;1.17;;;25.30;84.50;;;;;;5052040;28;20115;-76
2023/07/20 09:31:18;;;;;;;5.20;2.65;;;24.30;84.80;;;;;;5052226;28;20110;-77
2023/07/20 09:33:45;;;;;;;3.17;1.15;;;23.70;86.70;;;;;;5051857;28;20049;-77
2023/07/20 09:36:13;;;;;;;3.85;1.30;;;23.20;85.70;;;;;;5051736;28;20095;-78
2023/07/20 09:38:45;;;;;;;1.88;0.95;;;23.30;87.60;;;;;;5052121;28;20056;-77
2023/07/20 09:41:15;;;;;;;3.22;1.10;;;24.10;86.40;;;;;;5052077;28;20076;-79
2023/07/20 09:43:42;;;;;;;2.67;0.90;;;24.70;85.30;;;;;;5053737;28;20052;-79
2023/07/20 09:46:08;;;;;;;1.05;0.88;;;25.20;84.80;;;;;;5055729;28;20053;-77
2023/07/20 09:48:34;;;;;;;1.48;0.80;;;26.00;85.10;;;;;;5055960;28;20076;-74
2023/07/20 09:51:00;;;;;;;1.98;1.17;;;26.50;84.90;;;;;;5055778;28;20052;-78
2023/07/20 09:53:27;;;;;;;2.20;0.95;;;27.00;83.80;;;;;;5055071;28;20102;-76
2023/07/20 09:55:54;;;;;;;0.98;0.80;;;27.40;83.70;;;;;;5055168;28;20080;-73
2023/07/20 09:58:19;;;;;;;1.05;0.90;;;27.00;83.20;;;;;;5055153;28;20053;-73
2023/07/20 10:00:50;;;;;;;1.58;1.05;;;26.80;81.40;;;;;;5055042;28;20107;-79
2023/07/20 10:03:21;;;;;;;3.10;0.90;;;26.90;81.30;;;;;;5037973;28;20053;-77
2023/07/20 10:05:58;;;;;;;1.60;1.00;;;26.00;79.70;;;;;;5017666;28;20065;-76
2023/07/20 10:08:30;;;;;;;2.40;1.25;;;25.40;82.10;;;;;;5035141;28;20113;-78
2023/07/20 10:10:59;;;;;;;1.73;0.80;;;24.70;81.80;;;;;;5035423;28;20120;-78
2023/07/20 10:13:30;;;;;;;2.05;0.95;;;24.10;83.30;;;;;;5034994;28;20053;-72
2023/07/20 10:16:10;;;;;;;1.15;0.90;;;23.60;83.30;;;;;;5035030;28;20050;-78
2023/07/20 10:18:51;;;;;;;0.82;0.75;;;23.20;83.70;;;;;;5035659;28;20057;-79
2023/07/20 10:21:19;;;;;;;0.80;0.80;;;24.00;84.60;;;;;;5035029;28;20476;-70
2023/07/20 10:23:46;;;;;;;0.90;0.90;;;24.60;83.50;;;;;;5034649;28;20060;-77
2023/07/20 10:26:12;;;;;;;1.45;0.90;;;25.00;82.60;;;;;;5034755;28;20054;-80
2023/07/20 10:28:39;;;;;;;5.80;1.40;;;25.20;82.10;;;;;;5034928;28;20053;-75
2023/07/20 10:31:11;;;;;;;1.77;1.10;;;24.60;81.60;;;;;;5035141;28;20049;-77
2023/07/20 10:33:38;;;;;;;5.68;0.98;;;24.20;82.60;;;;;;5035196;28;20042;-76
2023/07/20 10:36:05;;;;;;;3.22;1.00;;;24.00;83.10;;;;;;5035119;28;20095;-77
2023/07/20 10:38:46;;;;;;;1.38;1.00;;;24.60;82.30;;;;;;5034998;28;20049;-76
2023/07/20 10:41:20;;;;;;;1.17;0.80;;;25.20;79.20;;;;;;5033749;28;20054;-77
2023/07/20 10:43:47;;;;;;;1.42;0.80;;;25.60;80.00;;;;;;5034531;28;20049;-76
2023/07/20 10:46:13;;;;;;;2.25;1.25;;;26.00;82.00;;;;;;5034783;28;20084;-77
2023/07/20 10:49:02;;;;;;;2.88;0.85;;;26.40;81.70;;;;;;5034752;28;20053;-76
2023/07/20 10:51:28;;;;;;;2.47;0.77;;;26.60;78.30;;;;;;5033808;28;20494;-76
2023/07/20 10:53:58;;;;;;;1.40;1.00;;;26.40;79.10;;;;;;5035173;28;20096;-77
2023/07/20 10:56:30;;;;;;;0.75;0.63;;;25.50;79.50;;;;;;5033007;28;20128;-74
2023/07/20 10:59:00;;;;;;;1.02;0.80;;;25.10;80.00;;;;;;5034061;28;20064;-76
2023/07/20 11:01:33;;;;;;;2.08;0.88;;;24.90;81.50;;;;;;5034942;28;20092;-76
2023/07/20 11:04:02;;;;;;;2.25;0.98;;;25.30;82.90;;;;;;5033832;28;20057;-82
2023/07/20 11:06:28;;;;;;;1.67;0.82;;;25.40;81.30;;;;;;5033127;28;20057;-81
2023/07/20 11:09:14;;;;;;;1.80;0.90;;;25.20;81.10;;;;;;5034349;28;20145;-74
2023/07/20 11:11:44;;;;;;;3.05;1.10;;;24.70;79.40;;;;;;5034200;28;20467;-78
2023/07/20 11:14:22;;;;;;;1.35;0.80;;;23.80;80.90;;;;;;5033882;28;20045;-75
2023/07/20 11:16:50;;;;;;;2.25;0.77;;;23.50;80.70;;;;;;5034294;28;20091;-80
2023/07/20 11:19:25;;;;;;;2.78;1.13;;;23.50;81.30;;;;;;5034885;28;20057;-76
2023/07/20 11:21:53;;;;;;;1.63;1.15;;;23.60;82.00;;;;;;5035892;28;20041;-75
2023/07/20 11:24:19;;;;;;;0.85;0.85;;;23.60;81.00;;;;;;5035577;28;20041;-74
2023/07/20 11:26:52;;;;;;;2.45;1.20;;;23.90;81.90;;;;;;5035491;28;20046;-77
2023/07/20 11:29:25;;;;;;;1.38;0.80;;;24.20;81.90;;;;;;5034782;28;20052;-75
2023/07/20 11:31:51;;;;;;;2.17;0.90;;;24.30;81.90;;;;;;5034933;28;20041;-78
2023/07/20 11:34:18;;;;;;;3.45;1.50;;;24.20;81.90;;;;;;5032837;28;20056;-75
2023/07/20 11:36:49;;;;;;;3.90;1.30;;;24.00;81.60;;;;;;5033815;28;20119;-74
2023/07/20 11:39:16;;;;;;;2.78;1.25;;;23.80;81.20;;;;;;5034059;28;20488;-78
2023/07/20 11:41:53;;;;;;;1.20;1.02;;;23.60;82.10;;;;;;5032894;28;20455;-78
2023/07/20 11:44:26;;;;;;;2.80;1.10;;;23.50;82.50;;;;;;5033351;28;20049;-77
2023/07/20 11:47:18;;;;;;;0.70;0.70;;;23.20;82.90;;;;;;5033485;28;20042;-77
2023/07/20 11:49:49;;;;;;;1.83;1.17;;;23.20;82.30;;;;;;5033470;28;20395;-76
2023/07/20 11:52:16;;;;;;;4.15;0.90;;;23.20;83.20;;;;;;5033281;28;20041;-76
2023/07/20 11:54:43;;;;;;;2.03;1.20;;;23.10;83.90;;;;;;5032244;28;20053;-78
2023/07/20 11:57:16;;;;;;;1.42;0.80;;;23.00;84.10;;;;;;5033094;28;20061;-76
2023/07/20 11:59:59;;;;;;;3.05;1.10;;;22.90;84.80;;;;;;5033040;28;20053;-75
2023/07/20 12:02:27;;;;;;;1.25;1.10;;;22.80;85.30;;;;;;5033443;28;20044;-75
2023/07/20 12:04:55;;;;;;;1.38;1.10;;;22.80;84.10;;;;;;5033459;28;20132;-74
2023/07/20 12:07:21;;;;;;;1.35;1.10;;;23.10;84.60;;;;;;5049214;28;20139;-73
2023/07/20 12:10:12;;;;;;;3.35;1.38;;;22.90;84.10;;;;;;5052822;28;20060;-76
2023/07/20 12:12:40;;;;;;;2.08;0.90;;;22.70;83.60;;;;;;5035397;28;20041;-77
2023/07/20 12:15:33;;;;;;;1.90;1.02;;;22.60;84.50;;;;;;5035483;28;20127;-77
2023/07/20 12:18:00;;;;;;;1.90;1.27;;;22.70;85.20;;;;;;5031053;28;20064;-75
2023/07/20 12:20:37;;;;;;;1.08;0.80;;;22.70;85.20;;;;;;5052874;28;20310;-76
2023/07/20 12:23:10;;;;;;;1.23;1.10;;;22.80;84.90;;;;;;5052939;28;20044;-78
2023/07/20 12:25:47;;;;;;;1.40;1.10;;;22.80;84.70;;;;;;5052500;28;20054;-76
2023/07/20 12:28:17;;;;;;;1.70;1.15;;;22.80;84.50;;;;;;5053078;28;20052;-79
2023/07/20 12:30:44;;;;;;;2.38;1.08;;;22.60;85.20;;;;;;5052648;28;20052;-75
2023/07/20 12:33:11;;;;;;;2.00;1.23;;;22.50;85.70;;;;;;5052382;28;20041;-77
2023/07/20 12:35:37;;;;;;;2.20;1.00;;;22.40;86.50;;;;;;5052414;28;20044;-77
2023/07/20 12:38:03;;;;;;;1.50;1.40;;;22.20;88.90;;;;;;5018325;28;20124;-78
2023/07/20 12:40:29;;;;;;;7.13;2.38;;;22.00;90.20;;;;;;5034636;28;20051;-78
2023/07/20 12:42:57;;;;;;;3.55;1.60;;;21.80;92.10;;;;;;5034617;28;20056;-77
2023/07/20 12:45:22;;;;;;;2.92;1.50;;;21.70;94.50;;;;;;5052314;28;20049;-73
2023/07/20 12:47:48;;;;;;;1.85;1.60;;;21.60;95.50;;;;;;5052210;28;20059;-75
2023/07/20 12:50:14;;;;;;;2.30;1.33;;;21.50;97.00;;;;;;5018877;28;20052;-75